METAR Formatted Surface Weather Observation
Issued by NWS

Home | Current Version | Previous Version | Text Only | Print | Product List | Glossary Off
Versions: 1 2 3 4 5

429
SAUS42 KTAE 210911
MTR1J0
METAR K1J0 210858Z AUTO 00000KT 8SM CLR 24/24 A3000 RMK AO2 SLP117
60000 T02390239 55011 $



USA.gov is the U.S. government's official web portal to all federal, state and local government web resources and services.